• Join FlightAware (Why Join?)
  • Login
  • US Flag 
05:34AM EDT


 

Airport Tracker/Info


-or-


 

Live Flight TrackerFlight Track Log ✈ SWA1199 ✈ 21-Jun-2013 ✈ KSAT - KBNA

Flight Track Log - Related Links

Times and Time Zones

All times are in EDT time to prevent confusion due to time zone crossing. See the SWA1199 flight status page for this flight to view local times or setup timezone preferences in your user account.

Time Position Orientation Groundspeed Altitude Reporting Facility
EDT Latitude Longitude Course Direction KTS MPH feet Rate Location/Type
07:29AM 29.5222 -98.4592 125° Southeast 157 181 1,800  Level Houston Center
07:30AM 29.5011 -98.4247 125° Southeast 171 197 3,000 2,340 Climbing Houston Center
07:31AM 29.5147 -98.3550 77° East 240 276 5,900 2,700 Climbing Houston Center
07:32AM 29.5467 -98.2722 66° East 288 331 8,500 2,640 Climbing Houston Center
07:33AM 29.5833 -98.1836 65° Northeast 306 352 11,300 2,880 Climbing Houston Center
07:34AM 29.6269 -98.0758 65° Northeast 343 395 14,400 2,760 Climbing Houston Center
07:35AM 29.6522 -97.9664 75° East 358 412 17,000 2,460 Climbing Houston Center
07:36AM 29.6533 -97.8500 89° East 363 418 19,500 2,100 Climbing Houston Center
07:37AM 29.6553 -97.7253 89° East 375 432 21,300 1,860 Climbing Houston Center
07:38AM 29.6556 -97.6003 90° East 388 447 23,300 1,680 Climbing Houston Center
07:39AM 29.6569 -97.4739 89° East 393 452 24,800 1,320 Climbing Houston Center
07:40AM 29.6583 -97.3394 89° East 415 478 26,100 1,260 Climbing Houston Center
07:41AM 29.6594 -97.1994 89° East 433 498 27,500 1,200 Climbing Houston Center
07:42AM 29.6594 -97.0567 90° East 443 510 28,600 1,140 Climbing Houston Center
07:43AM 29.6439 -96.9100 97° East 458 527 29,900 1,200 Climbing Houston Center
07:44AM 29.6267 -96.7628 98° East 471 542 31,100 1,200 Climbing Houston Center
07:45AM 29.7047 -96.6508 51° Northeast 458 527 32,400 1,440 Climbing Houston Center
07:46AM 29.7972 -96.5533 42° Northeast 453 521 34,100 1,500 Climbing Houston Center
07:47AM 29.8856 -96.4597 43° Northeast 440 506 35,500 1,020 Climbing Houston Center
07:48AM 29.9742 -96.3661 42° Northeast 433 498 36,300 660 Climbing Houston Center
07:49AM 30.0622 -96.2733 42° Northeast 431 496 36,900 300 Climbing Houston Center
07:50AM 30.1547 -96.1758 42° Northeast 421 484 37,000  Climbing Houston Center
07:51AM 30.2408 -96.0850 42° Northeast 417 480 37,000  Level Houston Center
07:52AM 30.3403 -95.9839 41° Northeast 423 487 37,000  Level Houston Center
07:53AM 30.4281 -95.8903 43° Northeast 427 491 37,000  Level Houston Center
07:54AM 30.5164 -95.7942 43° Northeast 432 497 37,000  Level Houston Center
07:55AM 30.6047 -95.7006 42° Northeast 432 497 37,000  Level Houston Center
07:56AM 30.6989 -95.6000 43° Northeast 430 495 37,000  Level Houston Center
07:57AM 30.7869 -95.5053 43° Northeast 430 495 37,000  Level Houston Center
07:58AM 30.8764 -95.4097 43° Northeast 436 502 37,000  Level Houston Center
07:59AM 30.9650 -95.3136 43° Northeast 436 502 37,000  Level Houston Center
08:00AM 31.0544 -95.2175 43° Northeast 436 502 37,000  Level Houston Center
08:01AM 31.1436 -95.1194 43° Northeast 438 504 37,000  Level Houston Center
08:02AM 31.2339 -95.0228 42° Northeast 438 504 37,000  Level Houston Center
08:03AM 31.3253 -94.9247 42° Northeast 437 503 37,000  Level Houston Center
08:04AM 31.4175 -94.8239 43° Northeast 443 510 37,000  Level Houston Center
08:05AM 31.5064 -94.7242 44° Northeast 439 505 37,000  Level Houston Center
08:06AM 31.5947 -94.6258 43° Northeast 435 501 37,000  Level Houston Center
08:07AM 31.6822 -94.5289 43° Northeast 433 498 37,000  Level Houston Center
08:08AM 31.7864 -94.4142 43° Northeast 429 494 37,000  Level Houston Center
08:09AM 31.8731 -94.3164 44° Northeast 429 494 37,000  Level Houston Center
08:11AM 31.9597 -94.2208 43° Northeast 428 493 37,000  Level Houston Center
08:12AM 32.0450 -94.1267 43° Northeast 424 488 37,000  Level Houston Center
08:13AM 32.1344 -94.0278 43° Northeast 423 487 37,000  Level Fort Worth Center
08:14AM 32.2214 -93.9192 47° Northeast 418 481 37,000  Level Fort Worth Center
08:15AM 32.3064 -93.8297 42° Northeast 412 474 37,000  Level Fort Worth Center
08:16AM 32.3914 -93.7306 45° Northeast 418 481 37,000  Level Fort Worth Center
08:17AM 32.4761 -93.6358 43° Northeast 413 475 37,000  Level Fort Worth Center
08:18AM 32.5631 -93.5386 43° Northeast 413 475 37,000  Level Fort Worth Center
08:19AM 32.6456 -93.4414 45° Northeast 413 475 37,000  Level Fort Worth Center
08:20AM 32.7322 -93.3461 43° Northeast 413 475 37,000  Level Fort Worth Center
08:21AM 32.8167 -93.2483 44° Northeast 413 475 37,000  Level Fort Worth Center
08:22AM 32.9011 -93.1506 44° Northeast 413 475 37,000  Level Fort Worth Center
08:23AM 32.9872 -93.0497 44° Northeast 413 475 37,000  Level Fort Worth Center
08:24AM 33.0717 -92.9564 43° Northeast 418 481 37,000  Level Fort Worth Center
08:25AM 33.1578 -92.8578 44° Northeast 418 481 37,000  Level Fort Worth Center
08:26AM 33.2419 -92.7592 44° Northeast 418 481 37,000  Level Fort Worth Center
08:27AM 33.3194 -92.6531 49° Northeast 413 475 37,000  Level Fort Worth Center
08:29AM 33.4906 -92.3872 52° Northeast 425 489 37,000  Level Memphis Center
08:30AM 33.5631 -92.2792 51° Northeast 413 475 37,000  Level Memphis Center
08:31AM 33.6358 -92.1711 51° Northeast 413 475 37,000  Level Memphis Center
08:32AM 33.7061 -92.0653 51° Northeast 413 475 37,000  Level Memphis Center
08:33AM 33.7717 -91.9989 40° Northeast 433 498 37,000  Level Memphis Center
08:34AM 33.9014 -91.9714 10° North 420 483 37,000  Level Memphis Center
08:35AM 34.0000 -91.9306 19° North 376 433 37,000  Level Memphis Center
08:36AM 34.0661 -91.8189 54° Northeast 370 426 37,000  Level Memphis Center
08:37AM 34.1197 -91.6994 62° Northeast 386 444 37,000  Level Memphis Center
08:38AM 34.1792 -91.5875 57° Northeast 394 453 37,000  Level Memphis Center
08:39AM 34.2431 -91.4678 57° Northeast 407 468 37,000  Level Memphis Center
08:40AM 34.3044 -91.3503 58° Northeast 407 468 37,000  Level Memphis Center
08:41AM 34.3658 -91.2378 57° Northeast 407 468 37,000  Level Memphis Center
08:42AM 34.4292 -91.1175 57° Northeast 407 468 37,000  Level Memphis Center
08:43AM 34.4903 -91.0047 57° Northeast 412 474 37,000  Level Memphis Center
08:44AM 34.5514 -90.8892 57° Northeast 403 464 37,000  Level Memphis Center
08:45AM 34.6125 -90.7683 58° Northeast 409 471 37,000  Level Memphis Center
08:46AM 34.6669 -90.6628 58° Northeast 409 471 37,000  Level Memphis Center
08:47AM 34.7278 -90.5492 57° Northeast 407 468 37,000  Level Memphis Center
08:48AM 34.7903 -90.4306 57° Northeast 407 468 37,000  Level Memphis Center
08:49AM 34.8508 -90.3142 58° Northeast 407 468 37,000  Level Memphis Center
08:50AM 34.9133 -90.1950 57° Northeast 413 475 37,000 -180 Level Memphis Center
08:51AM 34.9819 -90.0631 58° Northeast 408 470 36,700 -1,020 Descending Memphis Center
08:52AM 35.0400 -89.9336 61° Northeast 417 480 35,000 -900 Descending Memphis Center
08:53AM 35.0833 -89.7964 69° East 423 487 35,000  Level Memphis Center
08:54AM 35.1283 -89.6564 69° East 435 501 35,000  Level Memphis Center
08:55AM 35.1733 -89.5189 68° East 435 501 35,000  Level Memphis Center
08:56AM 35.2142 -89.3964 68° East 435 501 35,000  Level Memphis Center
08:57AM 35.2569 -89.2611 69° East 429 494 35,000  Level Memphis Center
08:58AM 35.3017 -89.1283 68° East 429 494 35,000 -360 Level Memphis Center
08:59AM 35.3461 -88.9900 68° East 424 488 34,300 -840 Descending Memphis Center
09:00AM 35.3903 -88.8569 68° East 424 488 33,400 -900 Descending Memphis Center
09:01AM 35.4283 -88.7264 70° East 418 481 32,600 -900 Descending Memphis Center
09:02AM 35.4725 -88.5903 68° East 418 481 31,700 -900 Descending Memphis Center
09:03AM 35.5183 -88.4542 67° East 418 481 30,800 -1,080 Descending Memphis Center
09:04AM 35.5681 -88.3025 68° East 418 481 29,600 -1,500 Descending Memphis Center
09:05AM 35.6117 -88.1686 68° East 418 481 27,800 -2,040 Descending Memphis Center
09:06AM 35.6450 -88.0450 72° East 397 457 25,600 -1,800 Descending Memphis Center
09:07AM 35.6822 -87.9239 69° East 382 440 24,300 -1,140 Descending Memphis Center
09:08AM 35.7175 -87.8128 69° East 363 418 23,400 -1,500 Descending Memphis Center
09:09AM 35.7631 -87.6939 65° Northeast 369 425 21,400 -2,100 Descending Memphis Center
09:10AM 35.8106 -87.5769 63° Northeast 369 425 19,200 -1,980 Descending Memphis Center
09:11AM 35.8558 -87.4706 62° Northeast 369 425 17,500 -1,560 Descending Memphis Center
09:12AM 35.9036 -87.3689 60° Northeast 349 402 16,100 -1,740 Descending Memphis Center
09:13AM 35.9514 -87.2800 56° Northeast 318 366 14,100 -1,800 Descending Memphis Center
09:14AM 35.9972 -87.1936 57° Northeast 310 357 12,600 -1,440 Descending Memphis Center
09:15AM 36.0392 -87.1200 55° Northeast 299 344 11,300 -1,680 Descending Memphis Center
09:16AM 36.0700 -87.0264 68° East 287 330 9,300 -1,800 Descending Memphis Center
09:17AM 36.0903 -86.9331 75° East 281 323 7,700 -1,680 Descending Memphis Center
09:18AM 36.1214 -86.8444 66° East 281 323 6,000 -1,440 Descending Memphis Center
09:19AM 36.1847 -86.7981 31° Northeast 250 288 4,900 -960 Descending Memphis Center
09:20AM 36.2419 -86.7594 29° Northeast 239 275 4,100 -720 Descending Memphis Center
09:21AM 36.2781 -86.7142 45° Northeast 204 235 3,500 -840 Descending Memphis Center
09:22AM 36.2617 -86.6558 109° East 155 178 2,500 -660 Descending Memphis Center
09:23AM 36.2178 -86.6475 171° South 122 140 2,200 -540 Descending Memphis Center
09:24AM 36.1825 -86.6594 195° South 133 153 1,500 -720 Descending Memphis Center
09:27AM 36.1167 -86.6667 125° Southeast  Level FlightAware Approximate
09:34AM 36.1245 -86.6782 125° Southeast  Level Estimated